Time;durP1;ratioP1;P1;durP2;ratioP2;P2;SDS_P1;SDS_P2;PMS_P1;PMS_P2;Temp;Humidity;BMP_temperature;BMP_pressure;BME280_temperature;BME280_humidity;BME280_pressure;Samples;Min_cycle;Max_cycle;Signal;HPM_P1;HPM_P2
2023/02/28 00:00:10;;;;;;;;;;;;;;;23.76;34.95;95572.72;5028373;28;1891;-65
2023/02/28 00:02:39;;;;;;;;;;;;;;;23.77;34.84;95574.34;5031877;28;1410;-65
2023/02/28 00:05:04;;;;;;;;;;;;;;;23.77;35.03;95573.53;5038827;28;1507;-65
2023/02/28 00:07:30;;;;;;;;;;;;;;;23.58;35.03;95557.25;5024019;28;1418;-65
2023/02/28 00:09:55;;;;;;;;;;;;;;;23.74;35.16;95571.28;5030719;28;1401;-65
2023/02/28 00:12:21;;;;;;;;;;;;;;;23.81;35.32;95572.06;5014708;28;1414;-65
2023/02/28 00:14:46;;;;;;;;;;;;;;;23.87;34.85;95586.47;5015085;28;1391;-66
2023/02/28 00:17:11;;;;;;;;;;;;;;;23.84;35.20;95582.34;5032732;28;1326;-65
2023/02/28 00:19:37;;;;;;;;;;;;;;;23.85;35.58;95581.34;5038029;28;1976;-67
2023/02/28 00:22:02;;;;;;;;;;;;;;;23.91;35.11;95598.41;5032411;28;1559;-66
2023/02/28 00:24:27;;;;;;;;;;;;;;;23.91;35.54;95593.88;5031168;28;1368;-66
2023/02/28 00:26:52;;;;;;;;;;;;;;;23.90;35.25;95583.34;5032662;28;1417;-65
2023/02/28 00:29:18;;;;;;;;;;;;;;;23.91;35.31;95588.53;5048362;28;1416;-66
2023/02/28 00:31:43;;;;;;;;;;;;;;;23.94;35.51;95585.41;5026421;28;1470;-66
2023/02/28 00:34:08;;;;;;;;;;;;;;;23.94;35.74;95585.41;5036779;28;1457;-66
2023/02/28 00:36:34;;;;;;;;;;;;;;;23.99;35.54;95595.47;5036601;28;1319;-66
2023/02/28 00:38:59;;;;;;;;;;;;;;;24.00;35.60;95597.97;5036504;28;1310;-68
2023/02/28 00:41:24;;;;;;;;;;;;;;;23.98;35.58;95583.94;5030146;28;1906;-65
2023/02/28 00:43:50;;;;;;;;;;;;;;;24.00;35.53;95565.78;5012741;28;1319;-65
2023/02/28 00:46:15;;;;;;;;;;;;;;;23.98;35.70;95575.09;5035030;28;1129;-65
2023/02/28 00:48:40;;;;;;;;;;;;;;;23.94;35.68;95577.38;5033509;28;1452;-66
2023/02/28 00:51:06;;;;;;;;;;;;;;;23.89;35.92;95566.47;5036207;28;1200;-66
2023/02/28 00:53:32;;;;;;;;;;;;;;;23.88;36.22;95559.47;5027122;28;1099;-66
2023/02/28 00:55:58;;;;;;;;;;;;;;;23.94;35.92;95566.66;5029132;28;1461;-66
2023/02/28 00:58:23;;;;;;;;;;;;;;;23.90;36.18;95569.97;5047353;28;1476;-66
2023/02/28 01:00:49;;;;;;;;;;;;;;;23.91;36.47;95585.03;5052392;28;1969;-66
2023/02/28 01:03:15;;;;;;;;;;;;;;;23.97;36.33;95581.50;5044329;28;1417;-66
2023/02/28 01:05:41;;;;;;;;;;;;;;;23.96;36.34;95580.66;5025494;28;1179;-66
2023/02/28 01:08:06;;;;;;;;;;;;;;;24.01;36.13;95591.56;5034503;28;1406;-66
2023/02/28 01:10:32;;;;;;;;;;;;;;;24.02;36.30;95590.53;5044134;28;1031;-66
2023/02/28 01:12:57;;;;;;;;;;;;;;;24.02;36.21;95578.97;5034535;28;1186;-65
2023/02/28 01:15:22;;;;;;;;;;;;;;;24.01;36.31;95572.78;5031216;28;1317;-65
2023/02/28 01:17:48;;;;;;;;;;;;;;;24.00;36.42;95576.50;5030264;28;1251;-65
2023/02/28 01:20:13;;;;;;;;;;;;;;;24.04;36.50;95578.75;5045032;28;1902;-66
2023/02/28 01:22:39;;;;;;;;;;;;;;;23.97;36.40;95573.44;5046788;28;1397;-66
2023/02/28 01:25:04;;;;;;;;;;;;;;;23.97;36.39;95568.91;5044147;28;1155;-66
2023/02/28 01:27:29;;;;;;;;;;;;;;;23.98;36.17;95573.22;5029718;28;1272;-66
2023/02/28 01:29:55;;;;;;;;;;;;;;;23.91;36.55;95571.63;5055395;28;1539;-64
2023/02/28 01:32:20;;;;;;;;;;;;;;;23.94;36.32;95561.28;5035128;28;1536;-65
2023/02/28 01:34:46;;;;;;;;;;;;;;;23.93;36.74;95558.81;5045647;28;1174;-64
2023/02/28 01:37:11;;;;;;;;;;;;;;;23.97;36.58;95571.59;5034036;28;1382;-64
2023/02/28 01:39:36;;;;;;;;;;;;;;;23.91;36.76;95567.09;5023181;28;1906;-64
2023/02/28 01:42:02;;;;;;;;;;;;;;;23.92;36.70;95578.63;5035073;28;1365;-64
2023/02/28 01:44:46;;;;;;;;;;;;;;;23.90;36.58;95576.13;5033635;28;1449;-64
2023/02/28 01:47:12;;;;;;;;;;;;;;;23.90;36.57;95573.47;5034103;28;1540;-64
2023/02/28 01:49:37;;;;;;;;;;;;;;;23.85;36.87;95570.63;5029163;28;1194;-64
2023/02/28 01:52:02;;;;;;;;;;;;;;;23.90;36.54;95568.09;5030361;28;1381;-64
2023/02/28 01:54:30;;;;;;;;;;;;;;;23.93;36.33;95575.72;5034393;28;1020;-64
2023/02/28 01:57:01;;;;;;;;;;;;;;;23.94;36.52;95565.84;5048963;28;1220;-64
2023/02/28 01:59:32;;;;;;;;;;;;;;;23.90;36.67;95570.78;5038168;28;1963;-64
2023/02/28 02:01:59;;;;;;;;;;;;;;;23.91;36.78;95574.31;5023136;28;1275;-63
2023/02/28 02:04:27;;;;;;;;;;;;;;;23.90;36.84;95576.13;5034544;28;1402;-63
2023/02/28 02:06:52;;;;;;;;;;;;;;;23.91;36.74;95577.81;5034085;28;1111;-65
2023/02/28 02:09:17;;;;;;;;;;;;;;;23.73;36.80;95556.22;5040568;28;1118;-63
2023/02/28 02:11:44;;;;;;;;;;;;;;;23.77;37.04;95570.84;5035745;28;1398;-66
2023/02/28 02:14:32;;;;;;;;;;;;;;;23.91;37.14;95577.81;5040798;28;1372;-66
2023/02/28 02:17:16;;;;;;;;;;;;;;;23.97;36.65;95579.63;5045042;28;1483;-66
2023/02/28 02:19:57;;;;;;;;;;;;;;;23.91;36.85;95577.81;5034695;28;1906;-65
2023/02/28 02:22:28;;;;;;;;;;;;;;;23.82;36.88;95578.22;5038175;28;1293;-65
2023/02/28 02:24:57;;;;;;;;;;;;;;;23.80;37.02;95570.44;5037757;28;1587;-65
2023/02/28 02:27:26;;;;;;;;;;;;;;;23.76;36.93;95579.91;5038611;28;1405;-67
2023/02/28 02:30:08;;;;;;;;;;;;;;;23.82;36.70;95568.34;5033618;28;1151;-67
2023/02/28 02:32:54;;;;;;;;;;;;;;;23.82;36.77;95575.56;5013958;28;1261;-67
2023/02/28 02:35:31;;;;;;;;;;;;;;;23.79;36.82;95568.75;5030935;28;1163;-67
2023/02/28 02:37:56;;;;;;;;;;;;;;;23.80;36.76;95570.44;5041167;28;1155;-67
2023/02/28 02:40:25;;;;;;;;;;;;;;;23.77;37.06;95585.06;5034526;28;1886;-67
2023/02/28 02:43:09;;;;;;;;;;;;;;;23.70;37.24;95576.22;5047137;28;1401;-67
2023/02/28 02:45:38;;;;;;;;;;;;;;;23.76;37.18;95586.09;5024480;28;1380;-66
2023/02/28 02:48:06;;;;;;;;;;;;;;;23.77;37.08;95584.25;5028406;28;1260;-66
2023/02/28 02:50:34;;;;;;;;;;;;;;;23.77;37.14;95585.06;5034418;28;1500;-66
2023/02/28 02:53:02;;;;;;;;;;;;;;;23.79;36.93;95590.19;5032497;28;1453;-65
2023/02/28 02:55:27;;;;;;;;;;;;;;;23.73;36.96;95596.41;5030832;28;1300;-66
2023/02/28 02:58:02;;;;;;;;;;;;;;;23.73;37.14;95593.72;5026347;28;1262;-66
2023/02/28 03:00:31;;;;;;;;;;;;;;;23.75;37.00;95599.69;5027809;28;1910;-67
2023/02/28 03:02:57;;;;;;;;;;;;;;;23.80;36.98;95610.63;5032532;28;1410;-67
2023/02/28 03:05:29;;;;;;;;;;;;;;;23.79;37.08;95599.06;5015447;28;1497;-67
2023/02/28 03:07:55;;;;;;;;;;;;;;;23.76;37.39;95612.06;5012096;28;1319;-68
2023/02/28 03:10:31;;;;;;;;;;;;;;;23.77;37.45;95624.44;5025148;28;1445;-67
2023/02/28 03:13:04;;;;;;;;;;;;;;;23.77;37.46;95625.25;5038510;28;1247;-68
2023/02/28 03:15:37;;;;;;;;;;;;;;;23.84;37.28;95629.75;5040327;28;1429;-67
2023/02/28 03:18:11;;;;;;;;;;;;;;;23.87;37.29;95634.69;5028843;28;1409;-66
2023/02/28 03:20:55;;;;;;;;;;;;;;;23.85;37.33;95642.97;5025769;28;2019;-67
2023/02/28 03:23:23;;;;;;;;;;;;;;;23.80;37.66;95632.03;5014973;28;1467;-67
2023/02/28 03:25:58;;;;;;;;;;;;;;;23.82;37.73;95637.19;5016786;28;1355;-66
2023/02/28 03:28:36;;;;;;;;;;;;;;;23.74;37.73;95636.38;5037590;28;1063;-66
2023/02/28 03:31:14;;;;;;;;;;;;;;;23.81;38.08;95644.41;5018591;28;1460;-69
2023/02/28 03:33:42;;;;;;;;;;;;;;;23.88;37.54;95633.66;5022974;28;1302;-69
2023/02/28 03:36:14;;;;;;;;;;;;;;;23.72;38.23;95637.63;5038691;28;1382;-69
2023/02/28 03:38:49;;;;;;;;;;;;;;;23.68;38.33;95631.00;5032265;28;1279;-68
2023/02/28 03:41:29;;;;;;;;;;;;;;;23.68;38.32;95647.91;5021104;28;2325;-69
2023/02/28 03:43:56;;;;;;;;;;;;;;;23.70;38.25;95645.00;5022208;28;1417;-68
2023/02/28 03:46:24;;;;;;;;;;;;;;;23.70;38.44;95650.38;5031150;28;1151;-69
2023/02/28 03:48:58;;;;;;;;;;;;;;;23.67;38.45;95651.59;5041373;28;1170;-69
2023/02/28 03:51:26;;;;;;;;;;;;;;;23.75;38.25;95653.28;5033635;28;1483;-68
2023/02/28 03:53:53;;;;;;;;;;;;;;;23.79;38.28;95660.69;5032232;28;1500;-67
2023/02/28 03:56:18;;;;;;;;;;;;;;;23.72;38.41;95648.34;5012483;28;1386;-67
2023/02/28 03:58:59;;;;;;;;;;;;;;;23.81;38.18;95652.44;5031069;28;1441;-67
2023/02/28 04:01:30;;;;;;;;;;;;;;;23.68;38.81;95664.00;5039238;28;1937;-67
2023/02/28 04:03:55;;;;;;;;;;;;;;;23.63;33.73;95654.94;5039813;28;1398;-66
2023/02/28 04:06:22;;;;;;;;;;;;;;;21.15;37.69;95646.28;5022497;28;1476;-67
2023/02/28 04:08:48;;;;;;;;;;;;;;;22.54;37.04;95646.22;5013576;28;1434;-67
2023/02/28 04:11:22;;;;;;;;;;;;;;;23.07;37.27;95648.97;5032749;28;1354;-68
2023/02/28 04:13:48;;;;;;;;;;;;;;;20.84;34.39;95646.63;5032615;28;1473;-66
2023/02/28 04:16:13;;;;;;;;;;;;;;;19.16;36.92;95659.88;5032449;28;1500;-65
2023/02/28 04:18:39;;;;;;;;;;;;;;;18.32;38.06;95662.44;5022141;28;1362;-66
2023/02/28 04:21:05;;;;;;;;;;;;;;;17.79;38.78;95659.56;5028172;28;1964;-66
2023/02/28 04:23:30;;;;;;;;;;;;;;;17.90;38.41;95650.38;5032382;28;1401;-66
2023/02/28 04:25:56;;;;;;;;;;;;;;;17.50;38.86;95657.47;5014864;28;1441;-66
2023/02/28 04:28:21;;;;;;;;;;;;;;;17.09;39.51;95650.41;5027626;28;1398;-66
2023/02/28 04:30:47;;;;;;;;;;;;;;;17.47;39.14;95647.19;5027096;28;1366;-66
2023/02/28 04:33:12;;;;;;;;;;;;;;;17.53;38.82;95649.16;5032030;28;1484;-65
2023/02/28 04:35:37;;;;;;;;;;;;;;;17.46;38.71;95649.03;5032422;28;1405;-65
2023/02/28 04:38:02;;;;;;;;;;;;;;;17.46;38.53;95651.66;5021721;28;1599;-65
2023/02/28 04:40:28;;;;;;;;;;;;;;;17.20;38.81;95670.47;5022799;28;1963;-65
2023/02/28 04:42:53;;;;;;;;;;;;;;;17.37;38.61;95663.31;5032240;28;1147;-65
2023/02/28 04:45:18;;;;;;;;;;;;;;;17.42;38.52;95665.47;5032384;28;815;-65
2023/02/28 04:47:44;;;;;;;;;;;;;;;17.17;38.69;95678.75;5031512;28;1246;-65
2023/02/28 04:50:09;;;;;;;;;;;;;;;17.04;39.00;95681.06;5039363;28;1145;-65
2023/02/28 04:52:34;;;;;;;;;;;;;;;17.96;38.33;95674.44;5041094;28;1104;-66
2023/02/28 04:55:00;;;;;;;;;;;;;;;18.92;36.10;95675.00;5043719;28;1071;-66
2023/02/28 04:57:25;;;;;;;;;;;;;;;18.59;35.95;95677.06;5034034;28;1149;-67
2023/02/28 04:59:50;;;;;;;;;;;;;;;18.69;35.71;95671.50;5045622;28;1914;-64
2023/02/28 05:02:16;;;;;;;;;;;;;;;18.63;36.08;95675.69;5016867;28;1374;-66
2023/02/28 05:04:42;;;;;;;;;;;;;;;18.63;36.14;95681.84;5024192;28;1286;-67
2023/02/28 05:07:07;;;;;;;;;;;;;;;18.49;36.39;95676.47;5031428;28;1201;-69
2023/02/28 05:09:33;;;;;;;;;;;;;;;19.19;35.47;95678.13;5032879;28;1360;-71
2023/02/28 05:11:58;;;;;;;;;;;;;;;19.67;35.79;95681.34;5039354;28;1282;-68
2023/02/28 05:14:23;;;;;;;;;;;;;;;18.57;36.73;95682.53;5041498;28;1255;-67
2023/02/28 05:16:48;;;;;;;;;;;;;;;18.53;36.76;95681.25;5036945;28;1196;-70
2023/02/28 05:19:14;;;;;;;;;;;;;;;19.03;35.82;95687.88;5045009;28;1218;-68
2023/02/28 05:21:55;;;;;;;;;;;;;;;20.01;35.49;95686.09;5039694;28;2001;-67
2023/02/28 05:24:23;;;;;;;;;;;;;;;20.64;35.03;95689.09;5016115;28;804;-65
2023/02/28 05:26:50;;;;;;;;;;;;;;;21.02;34.40;95688.84;5006201;28;1093;-66
2023/02/28 05:29:16;;;;;;;;;;;;;;;21.22;34.42;95689.84;5016230;28;958;-65
2023/02/28 05:31:41;;;;;;;;;;;;;;;21.38;34.23;95690.63;5015903;28;953;-65
2023/02/28 05:34:06;;;;;;;;;;;;;;;21.49;34.15;95698.94;5016028;28;858;-66
2023/02/28 05:36:32;;;;;;;;;;;;;;;21.58;34.15;95693.44;5011225;28;1051;-67
2023/02/28 05:38:57;;;;;;;;;;;;;;;21.65;34.11;95702.31;5010793;28;1140;-66
2023/02/28 05:41:23;;;;;;;;;;;;;;;21.70;34.20;95711.38;5015653;28;1898;-65
2023/02/28 05:43:48;;;;;;;;;;;;;;;21.73;34.13;95705.66;5015680;28;913;-64
2023/02/28 05:46:14;;;;;;;;;;;;;;;21.78;34.10;95705.91;5015569;28;934;-66
2023/02/28 05:48:40;;;;;;;;;;;;;;;21.84;34.19;95706.13;5005809;28;1081;-65
2023/02/28 05:51:05;;;;;;;;;;;;;;;21.88;33.96;95707.38;5015444;28;1131;-65
2023/02/28 05:53:31;;;;;;;;;;;;;;;21.90;34.07;95718.69;5015568;28;866;-65
2023/02/28 05:55:56;;;;;;;;;;;;;;;21.91;33.86;95715.00;5015581;28;917;-65
2023/02/28 05:58:22;;;;;;;;;;;;;;;21.94;34.06;95720.78;5015458;28;882;-65
2023/02/28 06:00:47;;;;;;;;;;;;;;;21.98;33.99;95719.38;5005402;28;1906;-65
2023/02/28 06:03:13;;;;;;;;;;;;;;;22.01;33.88;95716.31;5015086;28;1249;-65
2023/02/28 06:05:38;;;;;;;;;;;;;;;22.03;33.92;95716.13;5015277;28;929;-65
2023/02/28 06:08:04;;;;;;;;;;;;;;;22.05;33.90;95714.06;5015329;28;957;-65
2023/02/28 06:10:29;;;;;;;;;;;;;;;22.07;33.83;95714.69;5010632;28;1058;-64
2023/02/28 06:12:54;;;;;;;;;;;;;;;22.13;33.77;95710.41;5010021;28;1246;-65
2023/02/28 06:15:20;;;;;;;;;;;;;;;22.12;33.77;95714.94;5015185;28;954;-65
2023/02/28 06:17:46;;;;;;;;;;;;;;;22.15;33.80;95711.03;5015110;28;882;-65
2023/02/28 06:20:12;;;;;;;;;;;;;;;22.17;33.62;95703.63;5014919;28;1895;-65
2023/02/28 06:22:38;;;;;;;;;;;;;;;22.18;33.71;95711.50;5005312;28;1150;-65
2023/02/28 06:25:04;;;;;;;;;;;;;;;22.19;33.54;95714.97;5014699;28;1020;-65
2023/02/28 06:27:30;;;;;;;;;;;;;;;22.22;33.57;95711.91;5013920;28;1228;-65
2023/02/28 06:29:56;;;;;;;;;;;;;;;22.26;33.61;95715.84;5014845;28;980;-65
2023/02/28 06:32:21;;;;;;;;;;;;;;;22.27;33.40;95712.13;5013447;28;1284;-66
2023/02/28 06:34:46;;;;;;;;;;;;;;;22.29;33.50;95723.47;5004864;28;1166;-65
2023/02/28 06:37:12;;;;;;;;;;;;;;;22.32;33.67;95722.25;5014660;28;803;-66
2023/02/28 06:39:37;;;;;;;;;;;;;;;22.33;33.34;95721.22;5014567;28;1902;-65
2023/02/28 06:42:03;;;;;;;;;;;;;;;22.33;33.47;95710.53;5014562;28;958;-65
2023/02/28 06:44:34;;;;;;;;;;;;;;;22.36;33.49;95723.47;5010959;28;874;-65
2023/02/28 06:47:00;;;;;;;;;;;;;;;22.36;33.39;95723.47;5009296;28;1207;-65
2023/02/28 06:49:25;;;;;;;;;;;;;;;22.36;33.46;95718.13;5014418;28;949;-65
2023/02/28 06:51:50;;;;;;;;;;;;;;;22.37;33.54;95723.31;5014705;28;783;-65
2023/02/28 06:54:16;;;;;;;;;;;;;;;22.37;33.33;95727.81;5013002;28;1272;-65
2023/02/28 06:56:41;;;;;;;;;;;;;;;22.35;33.49;95733.34;5004694;28;1078;-65
2023/02/28 06:59:06;;;;;;;;;;;;;;;22.37;33.24;95731.31;5014033;28;1216;-65
2023/02/28 07:01:32;;;;;;;;;;;;;;;22.36;33.50;95734.19;5013995;28;1971;-65
2023/02/28 07:03:58;;;;;;;;;;;;;;;22.35;33.26;95737.88;5014633;28;850;-65
2023/02/28 07:06:24;;;;;;;;;;;;;;;22.32;33.58;95735.63;5012853;28;1179;-65
2023/02/28 07:08:52;;;;;;;;;;;;;;;22.34;33.49;95731.72;5004318;28;1104;-64
2023/02/28 07:11:18;;;;;;;;;;;;;;;22.36;33.52;95728.84;5014078;28;811;-65
2023/02/28 07:13:44;;;;;;;;;;;;;;;22.35;33.50;95737.88;5012696;28;1397;-64
2023/02/28 07:16:10;;;;;;;;;;;;;;;22.35;33.33;95727.19;5013925;28;897;-65
2023/02/28 07:18:36;;;;;;;;;;;;;;;22.37;33.42;95728.66;5009832;28;865;-65
2023/02/28 07:21:02;;;;;;;;;;;;;;;22.36;33.44;95723.47;5008508;28;1980;-65
2023/02/28 07:23:27;;;;;;;;;;;;;;;22.38;33.41;95732.97;5013877;28;922;-65
2023/02/28 07:25:52;;;;;;;;;;;;;;;22.39;33.27;95728.44;5013764;28;887;-65
2023/02/28 07:28:18;;;;;;;;;;;;;;;22.42;33.37;95733.38;5013761;28;803;-66
2023/02/28 07:30:43;;;;;;;;;;;;;;;22.44;33.21;95732.16;5004218;28;1185;-66
2023/02/28 07:33:09;;;;;;;;;;;;;;;22.45;33.22;95731.16;5013364;28;1087;-66
2023/02/28 07:35:35;;;;;;;;;;;;;;;22.46;33.34;95729.31;5013637;28;902;-66
2023/02/28 07:38:00;;;;;;;;;;;;;;;22.48;33.32;95729.09;5013564;28;846;-66
2023/02/28 07:40:26;;;;;;;;;;;;;;;22.48;33.22;95726.41;5013885;28;1969;-65
2023/02/28 07:42:51;;;;;;;;;;;;;;;22.50;33.06;95730.53;5003754;28;1071;-66
2023/02/28 07:45:17;;;;;;;;;;;;;;;22.52;33.18;95725.81;5013799;28;1017;-66
2023/02/28 07:47:43;;;;;;;;;;;;;;;22.51;33.23;95716.13;5013711;28;958;-66
2023/02/28 07:50:09;;;;;;;;;;;;;;;22.52;33.07;95730.34;5013256;28;862;-66
2023/02/28 07:52:36;;;;;;;;;;;;;;;22.53;32.96;95719.44;5009987;28;1317;-66
2023/02/28 07:55:01;;;;;;;;;;;;;;;22.53;32.99;95722.09;5005828;28;1078;-66
2023/02/28 07:57:27;;;;;;;;;;;;;;;22.53;33.14;95723.97;5012266;28;1323;-66
2023/02/28 07:59:52;;;;;;;;;;;;;;;22.55;33.01;95716.56;5028347;28;1906;-66
2023/02/28 08:02:17;;;;;;;;;;;;;;;;;;5012975;28;1190;-65
2023/02/28 08:04:42;;;;;;;;;;;;;;;22.58;33.00;95719.66;5003790;28;1002;-65
2023/02/28 08:07:08;;;;;;;;;;;;;;;22.58;33.10;95722.34;5027616;28;1207;-66
2023/02/28 08:09:34;;;;;;;;;;;;;;;22.57;33.13;95714.50;5028288;28;1345;-65
2023/02/28 08:11:59;;;;;;;;;;;;;;;22.58;33.12;95722.34;5013134;28;948;-66
2023/02/28 08:14:24;;;;;;;;;;;;;;;22.59;33.06;95723.97;5013048;28;850;-66
2023/02/28 08:16:49;;;;;;;;;;;;;;;22.59;33.08;95721.31;5003090;28;1061;-65
2023/02/28 08:19:15;;;;;;;;;;;;;;;22.59;33.07;95721.31;5013053;28;878;-65
2023/02/28 08:21:40;;;;;;;;;;;;;;;22.59;32.90;95721.31;5012903;28;1906;-65
2023/02/28 08:24:06;;;;;;;;;;;;;;;22.61;32.92;95713.91;5012019;28;1399;-65
2023/02/28 08:26:31;;;;;;;;;;;;;;;22.61;32.91;95715.78;5012915;28;995;-65
2023/02/28 08:28:56;;;;;;;;;;;;;;;22.62;33.01;95717.41;5002929;28;1074;-65
2023/02/28 08:31:22;;;;;;;;;;;;;;;22.63;32.85;95721.75;5013180;28;879;-65
2023/02/28 08:33:50;;;;;;;;;;;;;;;22.64;32.81;95720.72;5012842;28;846;-65
2023/02/28 08:36:16;;;;;;;;;;;;;;;22.64;33.03;95728.75;5012897;28;839;-65
2023/02/28 08:38:41;;;;;;;;;;;;;;;22.63;33.00;95727.09;5004886;28;1176;-65
2023/02/28 08:41:09;;;;;;;;;;;;;;;22.64;32.94;95734.91;5009883;28;1907;-65
2023/02/28 08:43:34;;;;;;;;;;;;;;;22.66;32.89;95732.88;5012828;28;871;-65
2023/02/28 08:46:00;;;;;;;;;;;;;;;22.65;32.93;95725.88;5012811;28;933;-65
2023/02/28 08:48:26;;;;;;;;;;;;;;;22.66;32.94;95730.19;4995115;28;1185;-65
2023/02/28 08:50:59;;;;;;;;;;;;;;;22.67;32.81;95731.81;5004509;28;1030;-66
2023/02/28 08:53:25;;;;;;;;;;;;;;;22.65;32.73;95723.19;5016715;28;964;-66
2023/02/28 08:56:00;;;;;;;;;;;;;;;22.66;32.96;95729.38;5016629;28;929;-65
2023/02/28 08:58:25;;;;;;;;;;;;;;;22.67;32.93;95728.34;5016847;28;954;-64
2023/02/28 09:00:51;;;;;;;;;;;;;;;22.67;32.87;95736.34;4994112;28;1910;-65
2023/02/28 09:03:17;;;;;;;;;;;;;;;22.68;32.91;95732.66;5010963;28;1204;-65
2023/02/28 09:05:51;;;;;;;;;;;;;;;22.70;32.84;95729.78;5016351;28;983;-65
2023/02/28 09:08:16;;;;;;;;;;;;;;;22.71;32.85;95736.78;5016451;28;881;-65
2023/02/28 09:10:41;;;;;;;;;;;;;;;22.69;32.76;95734.31;5016352;28;905;-65
2023/02/28 09:13:07;;;;;;;;;;;;;;;22.68;32.75;95733.50;5006636;28;1272;-64
2023/02/28 09:15:32;;;;;;;;;;;;;;;22.71;32.81;95732.25;5016022;28;1149;-65
2023/02/28 09:17:57;;;;;;;;;;;;;;;22.69;32.76;95734.31;5016231;28;957;-65
2023/02/28 09:20:22;;;;;;;;;;;;;;;22.71;32.79;95728.75;5016131;28;1914;-65
2023/02/28 09:22:48;;;;;;;;;;;;;;;22.72;32.82;95735.75;5016461;28;933;-65
2023/02/28 09:25:13;;;;;;;;;;;;;;;22.71;32.67;95732.25;5006245;28;1101;-66
2023/02/28 09:27:39;;;;;;;;;;;;;;;22.71;32.79;95729.56;5016242;28;965;-66
2023/02/28 09:30:04;;;;;;;;;;;;;;;22.73;32.62;95729.38;5014805;28;1330;-66
2023/02/28 09:32:30;;;;;;;;;;;;;;;22.73;32.72;95729.38;5014752;28;1200;-66
2023/02/28 09:34:55;;;;;;;;;;;;;;;22.72;32.84;95730.41;4993982;28;1380;-65
2023/02/28 09:37:20;;;;;;;;;;;;;;;22.74;32.58;95733.69;5010245;28;1041;-66
2023/02/28 09:39:46;;;;;;;;;;;;;;;22.74;32.73;95731.88;5015764;28;1959;-66
2023/02/28 09:42:18;;;;;;;;;;;;;;;22.74;32.78;95729.19;5016063;28;886;-66
2023/02/28 09:44:44;;;;;;;;;;;;;;;22.73;32.77;95724.03;5015665;28;823;-66
2023/02/28 09:47:18;;;;;;;;;;;;;;;22.73;32.70;95716.81;5005905;28;1141;-66
2023/02/28 09:49:46;;;;;;;;;;;;;;;22.75;32.76;95722.81;5030894;28;1299;-66
2023/02/28 09:52:38;;;;;;;;;;;;;;;22.77;32.68;95726.13;5014428;28;1363;-67
2023/02/28 09:55:19;;;;;;;;;;;;;;;22.77;32.55;95722.59;5016382;28;1178;-66
2023/02/28 09:57:45;;;;;;;;;;;;;;;22.77;32.68;95720.75;5011092;28;995;-66
2023/02/28 10:00:14;;;;;;;;;;;;;;;22.78;32.67;95721.59;5010155;28;1954;-66
2023/02/28 10:03:01;;;;;;;;;;;;;;;22.78;32.72;95721.59;5013822;28;1294;-66
2023/02/28 10:05:41;;;;;;;;;;;;;;;22.78;32.61;95716.22;5030727;28;1381;-64
2023/02/28 10:08:09;;;;;;;;;;;;;;;22.79;32.52;95715.19;5015676;28;838;-66
2023/02/28 10:10:38;;;;;;;;;;;;;;;22.79;32.65;95718.69;5020665;28;1203;-66
2023/02/28 10:13:05;;;;;;;;;;;;;;;22.79;32.60;95717.88;5015358;28;953;-65
2023/02/28 10:15:33;;;;;;;;;;;;;;;22.79;32.61;95713.34;5013887;28;1307;-65
2023/02/28 10:18:01;;;;;;;;;;;;;;;22.79;32.53;95707.16;5015479;28;934;-65
2023/02/28 10:20:29;;;;;;;;;;;;;;;22.80;32.64;95711.50;5010468;28;1972;-65
2023/02/28 10:26:10;;;;;;;;;;;;;;;22.79;32.61;95701.81;5015058;28;590;-65
2023/02/28 10:28:35;;;;;;;;;;;;;;;22.81;32.44;95702.44;5014945;28;843;-65
2023/02/28 10:31:00;;;;;;;;;;;;;;;22.83;32.63;95692.38;5014759;28;965;-64
2023/02/28 10:33:31;;;;;;;;;;;;;;;22.82;32.42;95690.72;5004749;28;1031;-65
2023/02/28 10:35:56;;;;;;;;;;;;;;;22.84;32.50;95688.66;5014774;28;837;-65
2023/02/28 10:38:24;;;;;;;;;;;;;;;22.83;32.53;95679.81;5014979;28;910;-65
2023/02/28 10:40:49;;;;;;;;;;;;;;;22.84;32.60;95686.00;5014604;28;1965;-65
2023/02/28 10:43:15;;;;;;;;;;;;;;;22.85;32.32;95679.59;5009813;28;1020;-65
2023/02/28 10:45:53;;;;;;;;;;;;;;;22.85;32.31;95676.94;5009385;28;1132;-65
2023/02/28 10:48:18;;;;;;;;;;;;;;;22.87;32.36;95669.53;5014502;28;882;-65
2023/02/28 10:50:43;;;;;;;;;;;;;;;22.87;32.42;95666.84;5014735;28;901;-65
2023/02/28 10:53:27;;;;;;;;;;;;;;;22.87;32.29;95656.16;5014432;28;912;-65
2023/02/28 10:56:02;;;;;;;;;;;;;;;22.87;32.31;95658.81;5004414;28;961;-66
2023/02/28 10:58:48;;;;;;;;;;;;;;;22.88;32.44;95647.94;5014314;28;803;-65
2023/02/28 11:01:34;;;;;;;;;;;;;;;22.87;32.28;95651.63;5014041;28;1902;-65
2023/02/28 11:03:59;;;;;;;;;;;;;;;22.86;32.21;95652.66;5016967;28;1280;-65
2023/02/28 11:06:34;;;;;;;;;;;;;;;22.89;32.25;95643.41;5006397;28;983;-65
2023/02/28 11:09:05;;;;;;;;;;;;;;;22.88;32.27;95636.38;5013934;28;1058;-65
2023/02/28 11:11:40;;;;;;;;;;;;;;;22.89;32.35;95638.06;5014067;28;799;-65
2023/02/28 11:14:06;;;;;;;;;;;;;;;22.89;32.38;95638.06;5012472;28;1276;-65
2023/02/28 11:16:33;;;;;;;;;;;;;;;22.89;32.51;95632.69;5012737;28;1387;-72
2023/02/28 11:18:59;;;;;;;;;;;;;;;22.91;32.40;95638.69;5004043;28;1077;-66
2023/02/28 11:21:27;;;;;;;;;;;;;;;22.89;32.20;95630.03;5013880;28;1917;-65
2023/02/28 11:23:57;;;;;;;;;;;;;;;22.91;32.26;95636.00;5013902;28;867;-65
2023/02/28 11:26:35;;;;;;;;;;;;;;;22.91;32.35;95627.97;5013831;28;874;-65
2023/02/28 11:29:10;;;;;;;;;;;;;;;22.91;32.36;95630.66;5009117;28;1169;-65
2023/02/28 11:31:36;;;;;;;;;;;;;;;22.91;32.30;95627.97;5013246;28;1073;-65
2023/02/28 11:34:01;;;;;;;;;;;;;;;22.91;32.31;95625.31;5014111;28;815;-65
2023/02/28 11:36:31;;;;;;;;;;;;;;;22.90;32.46;95632.47;5028906;28;1313;-65
2023/02/28 11:39:01;;;;;;;;;;;;;;;22.89;32.39;95622.00;5014227;28;874;-65
2023/02/28 11:42:01;;;;;;;;;;;;;;;22.90;32.49;95623.63;5003621;28;2305;-65
2023/02/28 11:44:32;;;;;;;;;;;;;;;22.89;32.38;95632.69;5022800;28;1391;-65
2023/02/28 11:47:00;;;;;;;;;;;;;;;22.88;32.21;95623.00;5013508;28;846;-65
2023/02/28 11:49:42;;;;;;;;;;;;;;;22.88;32.40;95615.81;5013544;28;811;-65
2023/02/28 11:52:39;;;;;;;;;;;;;;;22.90;32.35;95627.13;5003883;28;1059;-64
2023/02/28 11:55:13;;;;;;;;;;;;;;;22.89;32.37;95616.66;5023232;28;1429;-65
2023/02/28 11:57:54;;;;;;;;;;;;;;;22.87;32.15;95608.81;5013663;28;870;-65
2023/02/28 12:00:19;;;;;;;;;;;;;;;22.88;32.33;95617.66;5020010;28;1946;-66
2023/02/28 12:02:48;;;;;;;;;;;;;;;22.88;32.33;95618.50;5028013;28;1375;-64
2023/02/28 12:05:23;;;;;;;;;;;;;;;22.89;32.38;95622.00;5028052;28;1172;-65
2023/02/28 12:08:21;;;;;;;;;;;;;;;22.90;32.17;95628.97;5033263;28;823;-66
2023/02/28 12:10:52;;;;;;;;;;;;;;;22.87;32.40;95624.88;4999631;28;1383;-65
2023/02/28 12:13:35;;;;;;;;;;;;;;;22.88;32.21;95617.66;5033117;28;874;-65
2023/02/28 12:16:25;;;;;;;;;;;;;;;22.88;32.36;95620.34;5004668;28;1185;-66
2023/02/28 12:18:50;;;;;;;;;;;;;;;22.88;32.21;95620.34;5032977;28;918;-65
2023/02/28 12:21:28;;;;;;;;;;;;;;;22.87;32.26;95610.66;5032862;28;1902;-65
2023/02/28 12:24:12;;;;;;;;;;;;;;;22.88;32.31;95609.63;5032937;28;842;-65
2023/02/28 12:26:42;;;;;;;;;;;;;;;22.87;32.30;95614.16;5022254;28;1046;-65
2023/02/28 12:29:29;;;;;;;;;;;;;;;22.88;32.18;95614.97;5015173;28;1353;-65
2023/02/28 12:31:57;;;;;;;;;;;;;;;22.88;32.22;95614.97;5032713;28;901;-65
2023/02/28 12:34:25;;;;;;;;;;;;;;;22.88;32.23;95615.81;5032620;28;924;-65
2023/02/28 12:36:52;;;;;;;;;;;;;;;22.86;32.35;95617.88;5027920;28;940;-65
2023/02/28 12:39:40;;;;;;;;;;;;;;;22.87;32.33;95614.16;5009732;28;1320;-65
2023/02/28 12:42:10;;;;;;;;;;;;;;;22.88;32.30;95609.63;5032764;28;893;-65
2023/02/28 12:44:47;;;;;;;;;;;;;;;22.89;32.37;95608.63;5014839;28;1255;-65
2023/02/28 12:47:14;;;;;;;;;;;;;;;22.88;32.33;95604.28;5014408;28;1213;-65
2023/02/28 12:49:46;;;;;;;;;;;;;;;22.88;32.20;95604.28;5022683;28;1085;-65
2023/02/28 12:52:13;;;;;;;;;;;;;;;22.88;32.31;95598.94;5032504;28;897;-65
2023/02/28 12:54:47;;;;;;;;;;;;;;;22.88;32.24;95601.59;5032478;28;795;-65
2023/02/28 12:57:24;;;;;;;;;;;;;;;22.87;32.42;95610.66;5014670;28;1280;-65
2023/02/28 12:59:53;;;;;;;;;;;;;;;22.87;32.24;95602.63;5027449;28;1969;-65
2023/02/28 13:02:47;;;;;;;;;;;;;;;22.86;32.13;95604.50;5026998;28;1347;-65
2023/02/28 13:05:26;;;;;;;;;;;;;;;22.87;32.29;95606.13;4962475;28;1194;-65
2023/02/28 13:08:06;;;;;;;;;;;;;;;22.87;32.31;95605.31;5032278;28;846;-65
2023/02/28 13:10:39;;;;;;;;;;;;;;;22.86;32.27;95611.72;5032339;28;894;-65